Time;durP1;ratioP1;P1;durP2;ratioP2;P2;SDS_P1;SDS_P2;PMS_P1;PMS_P2;Temp;Humidity;BMP_temperature;BMP_pressure;BME280_temperature;BME280_humidity;BME280_pressure;Samples;Min_cycle;Max_cycle;Signal;HPM_P1;HPM_P2
2024/01/24 00:00:27;;;;;;;0.53;0.53;;;10.00;99.90;;;;;;7368343;19;20294;-72
2024/01/24 00:02:53;;;;;;;0.30;0.30;;;9.90;99.90;;;;;;7367507;19;20313;-72
2024/01/24 00:05:19;;;;;;;0.40;0.40;;;9.90;99.90;;;;;;7368861;19;20195;-71
2024/01/24 00:07:44;;;;;;;0.40;0.40;;;9.90;99.90;;;;;;7367765;19;20201;-71
2024/01/24 00:10:12;;;;;;;0.57;0.57;;;10.00;99.90;;;;;;7391116;19;20150;-72
2024/01/24 00:12:37;;;;;;;0.83;0.40;;;10.00;99.90;;;;;;7369368;19;20198;-73
2024/01/24 00:15:04;;;;;;;1.00;0.47;;;10.00;99.90;;;;;;7366968;19;20273;-71
2024/01/24 00:17:29;;;;;;;0.52;0.30;;;10.10;99.90;;;;;;7369784;19;20190;-72
2024/01/24 00:19:55;;;;;;;0.70;0.53;;;10.10;99.90;;;;;;7366530;19;20584;-72
2024/01/24 00:22:20;;;;;;;0.40;0.40;;;10.20;99.90;;;;;;7374305;19;20127;-72
2024/01/24 00:24:46;;;;;;;0.37;0.37;;;10.20;99.90;;;;;;7387684;19;20254;-72
2024/01/24 00:27:12;;;;;;;0.77;0.43;;;10.20;99.90;;;;;;7365130;19;20193;-73
2024/01/24 00:29:39;;;;;;;0.20;0.20;;;10.20;99.90;;;;;;7365425;19;20222;-73
2024/01/24 00:32:04;;;;;;;0.73;0.50;;;10.30;99.90;;;;;;7368290;19;20595;-72
2024/01/24 00:34:30;;;;;;;0.70;0.50;;;10.20;99.90;;;;;;7368706;19;20190;-72
2024/01/24 00:36:55;;;;;;;0.63;0.20;;;10.20;99.90;;;;;;7391718;19;20175;-72
2024/01/24 00:39:21;;;;;;;0.40;0.33;;;10.30;99.90;;;;;;7366617;19;20186;-72
2024/01/24 00:41:47;;;;;;;0.20;0.20;;;10.20;99.90;;;;;;7368564;19;20194;-73
2024/01/24 00:44:13;;;;;;;0.20;0.20;;;10.20;99.90;;;;;;7366506;19;20216;-72
2024/01/24 00:46:40;;;;;;;0.20;0.20;;;10.30;99.90;;;;;;7367848;19;20636;-72
2024/01/24 00:49:09;;;;;;;0.38;0.38;;;10.30;99.90;;;;;;7391159;19;20603;-72
2024/01/24 00:51:36;;;;;;;0.83;0.40;;;10.40;99.90;;;;;;7367491;19;20186;-72
2024/01/24 00:54:01;;;;;;;0.30;0.30;;;10.50;99.90;;;;;;7366344;19;20235;-73
2024/01/24 00:56:27;;;;;;;0.97;0.43;;;10.50;99.90;;;;;;7369014;19;20542;-74
2024/01/24 00:58:53;;;;;;;4.57;0.40;;;10.50;99.90;;;;;;7365721;19;20190;-72
2024/01/24 01:01:19;;;;;;;0.70;0.70;;;10.60;99.90;;;;;;7391198;19;20141;-71
2024/01/24 01:03:45;;;;;;;0.55;0.52;;;10.50;99.90;;;;;;7363937;19;20641;-71
2024/01/24 01:06:11;;;;;;;1.23;0.40;;;10.60;99.90;;;;;;7368247;19;20209;-72
2024/01/24 01:08:36;;;;;;;0.20;0.20;;;10.50;99.90;;;;;;7363851;19;20223;-73
2024/01/24 01:11:02;;;;;;;0.25;0.25;;;10.40;99.90;;;;;;7366865;19;20186;-72
2024/01/24 01:13:28;;;;;;;1.00;0.43;;;10.40;99.90;;;;;;7363871;19;20145;-72
2024/01/24 01:15:53;;;;;;;0.57;0.30;;;10.40;99.90;;;;;;7389489;19;20150;-72
2024/01/24 01:18:19;;;;;;;0.63;0.40;;;10.60;99.90;;;;;;7368118;19;21646;-72
2024/01/24 01:20:44;;;;;;;0.40;0.40;;;10.70;99.90;;;;;;7365997;19;20189;-72
2024/01/24 01:23:10;;;;;;;0.63;0.30;;;10.60;99.90;;;;;;7366067;19;20261;-72
2024/01/24 01:25:36;;;;;;;0.23;0.23;;;10.70;99.90;;;;;;7366138;19;20138;-73
2024/01/24 01:28:01;;;;;;;0.40;0.40;;;10.80;99.90;;;;;;7388647;19;20138;-71
2024/01/24 01:30:27;;;;;;;1.17;0.60;;;10.80;99.90;;;;;;7365659;19;20559;-72
2024/01/24 01:32:52;;;;;;;0.85;0.50;;;10.80;99.90;;;;;;7363033;19;20210;-71
2024/01/24 01:35:18;;;;;;;0.32;0.32;;;10.80;99.90;;;;;;7367408;19;20277;-72
2024/01/24 01:37:43;;;;;;;0.40;0.40;;;10.70;99.90;;;;;;7364424;19;20660;-72
2024/01/24 01:40:10;;;;;;;0.43;0.23;;;10.70;99.90;;;;;;7380541;19;20150;-72
2024/01/24 01:42:36;;;;;;;0.20;0.20;;;10.70;99.90;;;;;;7366705;19;20237;-71
2024/01/24 01:45:03;;;;;;;0.30;0.30;;;10.60;99.90;;;;;;7362578;19;20393;-71
2024/01/24 01:47:29;;;;;;;0.30;0.30;;;10.60;99.90;;;;;;7365182;19;20189;-72
2024/01/24 01:49:55;;;;;;;0.33;0.30;;;10.60;99.90;;;;;;7363861;19;20189;-72
2024/01/24 01:52:22;;;;;;;0.30;0.30;;;10.60;99.90;;;;;;7374123;19;20167;-72
2024/01/24 01:54:49;;;;;;;0.50;0.40;;;10.70;99.90;;;;;;7388314;19;20158;-73
2024/01/24 01:57:15;;;;;;;0.30;0.30;;;10.60;99.90;;;;;;7366663;19;20205;-72
2024/01/24 01:59:41;;;;;;;0.90;0.30;;;10.70;99.90;;;;;;7362277;19;20680;-72
2024/01/24 02:02:10;;;;;;;1.75;0.50;;;10.60;99.90;;;;;;7365856;19;20193;-71
2024/01/24 02:04:36;;;;;;;0.52;0.45;;;10.60;99.90;;;;;;7360791;19;20188;-72
2024/01/24 02:07:02;;;;;;;2.83;0.35;;;10.60;99.90;;;;;;7384299;19;20130;-71
2024/01/24 02:09:28;;;;;;;0.30;0.30;;;10.50;99.90;;;;;;7365755;19;20207;-72
2024/01/24 02:11:54;;;;;;;1.23;0.67;;;10.50;99.90;;;;;;7365062;19;20303;-72
2024/01/24 02:14:19;;;;;;;0.20;0.20;;;10.50;99.90;;;;;;7365820;19;20198;-72
2024/01/24 02:16:45;;;;;;;0.68;0.40;;;10.50;99.90;;;;;;7360781;19;20182;-72
2024/01/24 02:19:11;;;;;;;0.22;0.22;;;10.60;99.90;;;;;;7388312;19;20155;-71
2024/01/24 02:21:37;;;;;;;0.80;0.73;;;10.60;99.90;;;;;;7362781;19;20257;-73
2024/01/24 02:24:03;;;;;;;1.02;0.40;;;10.50;99.90;;;;;;7363772;19;20281;-72
2024/01/24 02:26:29;;;;;;;1.90;0.47;;;10.50;99.90;;;;;;7363950;19;20193;-71
2024/01/24 02:28:55;;;;;;;0.50;0.40;;;10.50;99.90;;;;;;7364548;19;20663;-70
2024/01/24 02:31:20;;;;;;;0.20;0.20;;;10.50;99.90;;;;;;7384723;19;20523;-73
2024/01/24 02:33:46;;;;;;;0.93;0.47;;;10.50;99.90;;;;;;7374170;19;20143;-72
2024/01/24 02:36:15;;;;;;;0.90;0.40;;;10.50;99.90;;;;;;7366033;19;20194;-72
2024/01/24 02:38:43;;;;;;;0.50;0.43;;;10.50;99.90;;;;;;7364107;19;20780;-71
2024/01/24 02:41:09;;;;;;;0.30;0.30;;;10.50;99.90;;;;;;7364983;19;20685;-72
2024/01/24 02:43:35;;;;;;;0.40;0.40;;;10.40;99.90;;;;;;7364251;19;20143;-72
2024/01/24 02:46:01;;;;;;;0.82;0.43;;;10.40;99.90;;;;;;7385201;19;20245;-72
2024/01/24 02:48:27;;;;;;;0.80;0.70;;;10.40;99.90;;;;;;7363623;19;20205;-73
2024/01/24 02:50:53;;;;;;;0.98;0.38;;;10.50;99.90;;;;;;7365252;19;20190;-72
2024/01/24 02:53:18;;;;;;;0.65;0.47;;;10.50;99.90;;;;;;7372779;19;20562;-72
2024/01/24 02:55:47;;;;;;;0.75;0.30;;;10.50;99.90;;;;;;7367788;19;20190;-72
2024/01/24 02:58:13;;;;;;;0.30;0.30;;;10.50;99.90;;;;;;7392331;19;20141;-73
2024/01/24 03:00:38;;;;;;;1.15;0.38;;;10.50;99.90;;;;;;7369285;19;20592;-72
2024/01/24 03:03:04;;;;;;;1.85;0.45;;;10.50;99.90;;;;;;7369275;19;20185;-72
2024/01/24 03:05:30;;;;;;;0.20;0.20;;;10.60;99.90;;;;;;7367666;19;20194;-72
2024/01/24 03:07:59;;;;;;;0.20;0.20;;;10.50;99.90;;;;;;7372131;19;20657;-71
2024/01/24 03:10:28;;;;;;;0.45;0.40;;;10.50;99.90;;;;;;7370404;19;20130;-71
2024/01/24 03:12:53;;;;;;;0.47;0.47;;;10.60;99.90;;;;;;7393569;19;20154;-72
2024/01/24 03:15:19;;;;;;;0.70;0.40;;;10.70;99.90;;;;;;7368806;19;20196;-72
2024/01/24 03:17:45;;;;;;;0.20;0.20;;;10.80;99.90;;;;;;7371237;19;20222;-72
2024/01/24 03:20:13;;;;;;;0.35;0.30;;;10.80;99.90;;;;;;7368105;19;20189;-72
2024/01/24 03:22:38;;;;;;;0.38;0.22;;;10.80;99.90;;;;;;7370042;19;20739;-72
2024/01/24 03:25:04;;;;;;;0.20;0.20;;;10.70;99.90;;;;;;7390821;19;20142;-72
2024/01/24 03:27:30;;;;;;;0.38;0.38;;;10.70;99.90;;;;;;7370292;19;20190;-73
2024/01/24 03:29:55;;;;;;;0.30;0.30;;;10.70;99.90;;;;;;7367925;19;20186;-72
2024/01/24 03:32:21;;;;;;;0.20;0.20;;;10.80;99.90;;;;;;7372373;19;20190;-72
2024/01/24 03:34:57;;;;;;;1.00;0.40;;;10.80;99.90;;;;;;7369672;19;20197;-72
2024/01/24 03:37:23;;;;;;;0.30;0.30;;;10.80;99.90;;;;;;7371550;19;20130;-73
2024/01/24 03:39:48;;;;;;;1.58;0.40;;;10.90;99.90;;;;;;7390666;19;21015;-73
2024/01/24 03:42:14;;;;;;;0.90;0.50;;;10.90;99.90;;;;;;7370237;19;20227;-73
2024/01/24 03:44:40;;;;;;;2.45;0.57;;;10.90;99.90;;;;;;7366179;19;20196;-72
2024/01/24 03:47:06;;;;;;;1.17;0.52;;;11.00;99.90;;;;;;7369472;19;20190;-72
2024/01/24 03:49:32;;;;;;;0.32;0.32;;;11.00;99.90;;;;;;7369062;19;20146;-72
2024/01/24 03:51:58;;;;;;;2.13;0.60;;;11.00;99.90;;;;;;7391015;19;20151;-72
2024/01/24 03:54:23;;;;;;;0.25;0.22;;;11.00;99.90;;;;;;7368186;19;20199;-72
2024/01/24 03:56:49;;;;;;;0.43;0.43;;;11.00;99.90;;;;;;7367125;19;20194;-71
2024/01/24 03:59:15;;;;;;;0.30;0.30;;;11.10;99.90;;;;;;7367640;19;20237;-73
2024/01/24 04:01:41;;;;;;;0.20;0.20;;;11.20;99.90;;;;;;7369048;19;20187;-72
2024/01/24 04:04:08;;;;;;;2.40;0.90;;;11.10;99.90;;;;;;7389663;19;20624;-72
2024/01/24 04:06:34;;;;;;;0.22;0.22;;;11.20;99.90;;;;;;7368560;19;20199;-73
2024/01/24 04:08:59;;;;;;;0.20;0.20;;;11.10;99.90;;;;;;7369314;19;20190;-72
2024/01/24 04:11:25;;;;;;;0.38;0.38;;;11.00;99.90;;;;;;7367699;19;20214;-72
2024/01/24 04:13:53;;;;;;;0.60;0.60;;;11.20;99.90;;;;;;7367281;19;20193;-72
2024/01/24 04:16:20;;;;;;;1.27;0.75;;;11.10;99.90;;;;;;7391175;19;20129;-72
2024/01/24 04:18:46;;;;;;;0.30;0.30;;;11.10;99.90;;;;;;7367947;19;20186;-72
2024/01/24 04:21:12;;;;;;;1.60;0.40;;;11.10;99.90;;;;;;7368102;19;20247;-72
2024/01/24 04:23:37;;;;;;;0.98;0.95;;;11.10;99.90;;;;;;7364441;19;20290;-73
2024/01/24 04:26:04;;;;;;;0.80;0.70;;;11.20;99.90;;;;;;7367944;19;20586;-72
2024/01/24 04:28:30;;;;;;;0.40;0.40;;;11.20;99.90;;;;;;7367505;19;20506;-71
2024/01/24 04:30:56;;;;;;;2.10;0.30;;;11.30;99.90;;;;;;7390034;19;20577;-73
2024/01/24 04:33:22;;;;;;;0.20;0.20;;;11.30;99.90;;;;;;7368268;19;20198;-73
2024/01/24 04:35:47;;;;;;;0.40;0.40;;;11.30;99.90;;;;;;7365726;19;20190;-73
2024/01/24 04:38:13;;;;;;;0.22;0.22;;;11.30;99.90;;;;;;7369589;19;20671;-72
2024/01/24 04:40:38;;;;;;;3.33;0.75;;;11.30;99.90;;;;;;7365911;19;20572;-72
2024/01/24 04:43:04;;;;;;;0.38;0.30;;;11.30;99.90;;;;;;7386713;19;20146;-72
2024/01/24 04:45:30;;;;;;;0.28;0.28;;;11.30;99.90;;;;;;7368050;19;20197;-73
2024/01/24 04:47:55;;;;;;;1.77;0.50;;;11.30;99.90;;;;;;7365454;19;20185;-73
2024/01/24 04:50:21;;;;;;;0.40;0.40;;;11.30;99.90;;;;;;7365218;19;20261;-73
2024/01/24 04:52:47;;;;;;;0.40;0.40;;;11.30;99.90;;;;;;7366523;19;20189;-72
2024/01/24 04:55:13;;;;;;;1.65;0.30;;;11.30;99.90;;;;;;7389682;19;20139;-72
2024/01/24 04:57:39;;;;;;;0.50;0.50;;;11.30;99.90;;;;;;7366731;19;20224;-71
2024/01/24 05:00:09;;;;;;;0.43;0.20;;;11.30;99.90;;;;;;7367638;19;20189;-72
2024/01/24 05:02:35;;;;;;;0.60;0.60;;;11.20;99.90;;;;;;7364448;19;20207;-72
2024/01/24 05:05:02;;;;;;;0.45;0.45;;;11.30;99.90;;;;;;7366419;19;20197;-73
2024/01/24 05:07:27;;;;;;;0.30;0.30;;;11.40;99.90;;;;;;7367329;19;20152;-72
2024/01/24 05:09:53;;;;;;;0.57;0.28;;;11.40;99.90;;;;;;7388762;19;20143;-72
2024/01/24 05:12:19;;;;;;;0.30;0.30;;;11.30;99.90;;;;;;7363895;19;20182;-73
2024/01/24 05:14:45;;;;;;;1.40;0.55;;;11.30;99.90;;;;;;7365936;19;21022;-72
2024/01/24 05:17:10;;;;;;;0.32;0.32;;;11.40;99.90;;;;;;7365798;19;20798;-72
2024/01/24 05:19:36;;;;;;;0.40;0.40;;;11.40;99.90;;;;;;7365686;19;20519;-72
2024/01/24 05:22:02;;;;;;;0.30;0.30;;;11.40;99.90;;;;;;7387935;19;20134;-71
2024/01/24 05:24:28;;;;;;;0.30;0.30;;;11.40;99.90;;;;;;7365383;19;20518;-70
2024/01/24 05:26:53;;;;;;;0.40;0.40;;;11.50;99.90;;;;;;7365491;19;20189;-71
2024/01/24 05:29:19;;;;;;;0.30;0.30;;;11.60;99.90;;;;;;7365711;19;20265;-71
2024/01/24 05:31:45;;;;;;;0.20;0.20;;;11.50;99.90;;;;;;7365948;19;20193;-72
2024/01/24 05:34:10;;;;;;;0.30;0.30;;;11.60;99.90;;;;;;7387473;19;20171;-72
2024/01/24 05:36:36;;;;;;;0.85;0.38;;;11.60;99.90;;;;;;7366612;19;20224;-73
2024/01/24 05:39:03;;;;;;;0.47;0.47;;;11.70;99.90;;;;;;7366088;19;20186;-72
2024/01/24 05:41:28;;;;;;;0.30;0.30;;;11.70;99.90;;;;;;7365503;19;20194;-72
2024/01/24 05:43:54;;;;;;;0.40;0.40;;;11.80;99.90;;;;;;7364181;19;20509;-71
2024/01/24 05:46:19;;;;;;;1.40;0.40;;;11.80;99.90;;;;;;7380329;19;20158;-72
2024/01/24 05:48:45;;;;;;;0.32;0.32;;;11.90;99.90;;;;;;7379179;19;20158;-72
2024/01/24 05:51:11;;;;;;;0.47;0.47;;;11.90;99.90;;;;;;7361904;19;20740;-73
2024/01/24 05:53:41;;;;;;;0.40;0.40;;;12.00;99.90;;;;;;7366622;19;20725;-72
2024/01/24 05:56:06;;;;;;;0.17;0.17;;;12.00;99.90;;;;;;7364892;19;20190;-73
2024/01/24 05:58:32;;;;;;;0.80;0.40;;;12.00;99.90;;;;;;7364411;19;20167;-72
2024/01/24 06:00:57;;;;;;;0.32;0.32;;;12.00;99.90;;;;;;7386083;19;20171;-72
2024/01/24 06:03:23;;;;;;;0.30;0.30;;;12.00;99.90;;;;;;7364799;19;20218;-72
2024/01/24 06:05:49;;;;;;;0.40;0.40;;;12.00;99.90;;;;;;7364049;19;20204;-73
2024/01/24 06:08:14;;;;;;;0.82;0.50;;;12.10;99.90;;;;;;7365609;19;20210;-72
2024/01/24 06:10:40;;;;;;;0.30;0.30;;;12.00;99.90;;;;;;7363219;19;20186;-71
2024/01/24 06:13:06;;;;;;;0.75;0.40;;;12.10;99.90;;;;;;7387438;19;20147;-72
2024/01/24 06:15:34;;;;;;;2.70;0.77;;;12.10;99.90;;;;;;7363745;19;20194;-72
2024/01/24 06:18:00;;;;;;;0.37;0.30;;;12.10;99.90;;;;;;7366015;19;20190;-71
2024/01/24 06:20:25;;;;;;;0.20;0.20;;;12.10;99.90;;;;;;7363711;19;20286;-72
2024/01/24 06:22:51;;;;;;;0.40;0.20;;;12.20;99.90;;;;;;7365164;19;20194;-73
2024/01/24 06:25:17;;;;;;;0.40;0.40;;;12.20;99.90;;;;;;7390615;19;20254;-74
2024/01/24 06:27:42;;;;;;;0.20;0.20;;;12.10;99.90;;;;;;7371618;19;20277;-73
2024/01/24 06:30:09;;;;;;;0.20;0.20;;;12.10;99.90;;;;;;7371480;19;20200;-71
2024/01/24 06:32:35;;;;;;;0.38;0.38;;;12.10;99.90;;;;;;7369028;19;20186;-73
2024/01/24 06:35:01;;;;;;;0.30;0.30;;;12.10;99.90;;;;;;7369082;19;20190;-72
2024/01/24 06:37:26;;;;;;;0.60;0.60;;;12.10;99.90;;;;;;7370551;19;20158;-73
2024/01/24 06:39:52;;;;;;;0.20;0.20;;;12.00;99.90;;;;;;7392884;19;20151;-72
2024/01/24 06:42:18;;;;;;;0.45;0.20;;;12.10;99.90;;;;;;7367067;19;20231;-73
2024/01/24 06:44:43;;;;;;;0.43;0.43;;;12.10;99.90;;;;;;7370047;19;20186;-73
2024/01/24 06:47:09;;;;;;;0.30;0.30;;;12.10;99.90;;;;;;7371374;19;20186;-73
2024/01/24 06:49:35;;;;;;;0.30;0.30;;;12.10;99.90;;;;;;7370554;19;20131;-71
2024/01/24 06:52:00;;;;;;;0.40;0.40;;;12.20;99.90;;;;;;7392069;19;20126;-71
2024/01/24 06:54:27;;;;;;;0.85;0.40;;;12.10;99.90;;;;;;7369814;19;20182;-73
2024/01/24 06:56:52;;;;;;;0.32;0.30;;;12.10;99.90;;;;;;7371788;19;20253;-73
2024/01/24 06:59:18;;;;;;;0.55;0.55;;;12.20;99.90;;;;;;7365108;19;20202;-72
2024/01/24 07:01:43;;;;;;;0.30;0.30;;;12.30;99.90;;;;;;7370143;19;20226;-73
2024/01/24 07:04:09;;;;;;;0.20;0.20;;;12.30;99.90;;;;;;7389896;19;20149;-72
2024/01/24 07:06:35;;;;;;;1.00;0.50;;;12.20;99.90;;;;;;7369608;19;20395;-72
2024/01/24 07:09:01;;;;;;;0.38;0.38;;;12.40;99.90;;;;;;7370140;19;20344;-72
2024/01/24 07:11:26;;;;;;;1.27;0.30;;;12.20;99.90;;;;;;7370846;19;20194;-73
2024/01/24 07:13:53;;;;;;;1.08;0.88;;;12.20;99.90;;;;;;7369529;19;20190;-72
2024/01/24 07:16:18;;;;;;;0.43;0.32;;;12.10;99.90;;;;;;7395882;19;20135;-71
2024/01/24 07:18:44;;;;;;;0.30;0.30;;;12.20;99.90;;;;;;7368724;19;20775;-72
2024/01/24 07:21:10;;;;;;;0.38;0.38;;;12.30;99.90;;;;;;7370458;19;20253;-73
2024/01/24 07:23:35;;;;;;;0.52;0.52;;;12.30;99.90;;;;;;7368691;19;20182;-72
2024/01/24 07:26:02;;;;;;;0.30;0.30;;;12.40;99.90;;;;;;7369512;19;20202;-72
2024/01/24 07:28:29;;;;;;;0.20;0.20;;;12.40;99.90;;;;;;7369524;19;20142;-72
2024/01/24 07:30:55;;;;;;;0.40;0.40;;;12.30;99.90;;;;;;7393041;19;20896;-73
2024/01/24 07:33:21;;;;;;;0.88;0.38;;;12.30;99.90;;;;;;7368890;19;20182;-73
2024/01/24 07:35:47;;;;;;;0.73;0.50;;;12.30;99.90;;;;;;7368006;19;20189;-72
2024/01/24 07:38:13;;;;;;;1.17;0.60;;;12.40;99.90;;;;;;7369437;19;20294;-72
2024/01/24 07:40:38;;;;;;;0.65;0.50;;;12.40;99.90;;;;;;7371222;19;20135;-72
2024/01/24 07:43:04;;;;;;;0.65;0.65;;;12.40;99.90;;;;;;7390711;19;20817;-72
2024/01/24 07:45:30;;;;;;;0.30;0.30;;;12.40;99.90;;;;;;7370250;19;20194;-71
2024/01/24 07:47:56;;;;;;;1.40;0.40;;;12.50;99.90;;;;;;7370361;19;20186;-72
2024/01/24 07:50:21;;;;;;;0.52;0.30;;;12.30;99.90;;;;;;7370028;19;20194;-71
2024/01/24 07:52:47;;;;;;;0.30;0.30;;;12.40;99.90;;;;;;7369097;19;21050;-71
2024/01/24 07:55:13;;;;;;;0.20;0.20;;;12.50;99.90;;;;;;7391693;19;20147;-71
2024/01/24 07:57:40;;;;;;;0.95;0.90;;;12.50;99.90;;;;;;7371093;19;20185;-73
2024/01/24 08:00:06;;;;;;;0.32;0.32;;;12.50;99.90;;;;;;7368191;19;20221;-73
2024/01/24 08:02:32;;;;;;;0.32;0.30;;;12.60;99.90;;;;;;7368007;19;20542;-72
2024/01/24 08:04:58;;;;;;;0.50;0.40;;;12.60;99.90;;;;;;7368018;19;20201;-74
2024/01/24 08:07:23;;;;;;;0.20;0.20;;;12.60;99.90;;;;;;7370315;19;20171;-75
2024/01/24 08:09:49;;;;;;;1.10;0.63;;;12.70;99.90;;;;;;7389920;19;20142;-72
2024/01/24 08:12:15;;;;;;;0.20;0.20;;;12.70;99.90;;;;;;7369180;19;20566;-72
2024/01/24 08:14:40;;;;;;;1.02;0.55;;;12.70;99.90;;;;;;7368654;19;20298;-72
2024/01/24 08:17:08;;;;;;;0.30;0.30;;;12.80;99.90;;;;;;7370065;19;20194;-73
2024/01/24 08:19:34;;;;;;;0.28;0.20;;;12.80;99.90;;;;;;7368444;19;20153;-72
2024/01/24 08:22:00;;;;;;;0.30;0.30;;;12.90;99.90;;;;;;7387891;19;20147;-72
2024/01/24 08:24:25;;;;;;;0.30;0.30;;;12.90;99.90;;;;;;7367126;19;20661;-71
2024/01/24 08:26:52;;;;;;;0.57;0.35;;;12.80;99.90;;;;;;7367511;19;20214;-71
2024/01/24 08:29:18;;;;;;;0.30;0.30;;;12.90;99.90;;;;;;7370513;19;20182;-71
2024/01/24 08:31:44;;;;;;;0.75;0.47;;;13.00;99.90;;;;;;7367338;19;20194;-72
2024/01/24 08:34:09;;;;;;;0.43;0.30;;;13.00;99.90;;;;;;7391416;19;20146;-71
2024/01/24 08:36:36;;;;;;;0.40;0.40;;;13.00;99.90;;;;;;7364305;19;20190;-70
2024/01/24 08:39:03;;;;;;;0.40;0.40;;;13.00;99.90;;;;;;7367775;19;20454;-71
2024/01/24 08:41:29;;;;;;;0.20;0.20;;;12.90;99.90;;;;;;7363911;19;20186;-76
2024/01/24 08:43:57;;;;;;;0.30;0.30;;;13.00;99.90;;;;;;7367737;19;20186;-76
2024/01/24 08:46:23;;;;;;;0.20;0.20;;;13.00;99.90;;;;;;7366693;19;20150;-72
2024/01/24 08:48:49;;;;;;;0.38;0.38;;;13.10;99.90;;;;;;7389724;19;20608;-74
2024/01/24 08:51:14;;;;;;;0.20;0.20;;;13.10;99.90;;;;;;7366493;19;20185;-73
2024/01/24 08:53:40;;;;;;;0.30;0.30;;;13.00;99.90;;;;;;7368238;19;20194;-73
2024/01/24 08:56:09;;;;;;;0.20;0.20;;;13.10;99.90;;;;;;7368763;19;20603;-72
2024/01/24 08:58:38;;;;;;;0.20;0.20;;;13.10;99.90;;;;;;7368777;19;20551;-73
2024/01/24 09:01:04;;;;;;;0.38;0.30;;;13.20;99.90;;;;;;7390686;19;20150;-72
2024/01/24 09:03:30;;;;;;;0.40;0.40;;;13.40;99.90;;;;;;7366752;19;21019;-73
2024/01/24 09:05:55;;;;;;;0.98;0.68;;;13.20;99.90;;;;;;7366032;19;20197;-72
2024/01/24 09:08:21;;;;;;;0.30;0.30;;;13.20;99.90;;;;;;7368675;19;20193;-72
2024/01/24 09:10:47;;;;;;;0.10;0.10;;;13.30;99.90;;;;;;7364594;19;20907;-72
2024/01/24 09:13:13;;;;;;;0.13;0.13;;;13.30;99.90;;;;;;7389022;19;20150;-72
2024/01/24 09:15:38;;;;;;;0.10;0.10;;;13.30;99.90;;;;;;7366062;19;20186;-72
2024/01/24 09:18:06;;;;;;;0.20;0.20;;;13.40;99.90;;;;;;7365517;19;20553;-73
2024/01/24 09:20:32;;;;;;;0.20;0.20;;;13.30;99.90;;;;;;7366155;19;20629;-72
2024/01/24 09:22:58;;;;;;;0.25;0.17;;;13.40;99.90;;;;;;7363799;19;20190;-73
2024/01/24 09:25:24;;;;;;;0.30;0.30;;;13.30;99.90;;;;;;7368211;19;20150;-73
2024/01/24 09:27:50;;;;;;;0.20;0.20;;;13.40;99.90;;;;;;7387271;19;20222;-72
2024/01/24 09:30:15;;;;;;;0.22;0.20;;;13.40;99.90;;;;;;7366558;19;20225;-73
2024/01/24 09:32:41;;;;;;;0.10;0.10;;;13.40;99.90;;;;;;7364096;19;20261;-73
2024/01/24 09:35:07;;;;;;;0.20;0.20;;;13.40;99.90;;;;;;7367039;19;20194;-73
2024/01/24 09:37:33;;;;;;;0.45;0.25;;;13.50;99.90;;;;;;7366019;19;20145;-74
2024/01/24 09:40:01;;;;;;;0.30;0.30;;;13.40;99.90;;;;;;7388208;19;20502;-74
2024/01/24 09:42:28;;;;;;;0.32;0.32;;;13.50;99.90;;;;;;7365879;19;20186;-74
2024/01/24 09:44:59;;;;;;;0.20;0.20;;;13.40;99.90;;;;;;7364444;19;20654;-73
2024/01/24 09:47:26;;;;;;;0.20;0.20;;;13.50;99.90;;;;;;7365448;19;20193;-74
2024/01/24 09:49:52;;;;;;;0.30;0.30;;;13.40;99.90;;;;;;7365136;19;20261;-75
2024/01/24 09:52:19;;;;;;;0.40;0.40;;;13.40;99.90;;;;;;7388586;19;20167;-75
2024/01/24 09:54:45;;;;;;;0.30;0.22;;;13.40;99.90;;;;;;7365201;19;20186;-76
2024/01/24 09:57:12;;;;;;;0.20;0.20;;;13.40;99.90;;;;;;7365041;19;20193;-73
2024/01/24 09:59:39;;;;;;;0.20;0.20;;;13.50;99.90;;;;;;7367325;19;20388;-75
2024/01/24 10:02:06;;;;;;;0.38;0.38;;;13.40;99.90;;;;;;7371702;19;20273;-74
2024/01/24 10:04:37;;;;;;;0.20;0.20;;;13.50;99.90;;;;;;7371231;19;20182;-74
2024/01/24 10:07:08;;;;;;;0.20;0.20;;;13.50;99.90;;;;;;7396392;19;20134;-75
2024/01/24 10:09:34;;;;;;;0.30;0.30;;;13.50;99.90;;;;;;7373231;19;20563;-73
2024/01/24 10:12:00;;;;;;;0.30;0.30;;;13.50;99.90;;;;;;7371159;19;20189;-74
2024/01/24 10:14:28;;;;;;;0.20;0.20;;;13.60;99.90;;;;;;7372398;19;20192;-72
2024/01/24 10:16:54;;;;;;;0.25;0.25;;;13.70;99.90;;;;;;7372218;19;20305;-73
2024/01/24 10:19:24;;;;;;;0.30;0.30;;;13.60;99.90;;;;;;7387487;19;20154;-74
2024/01/24 10:21:50;;;;;;;0.30;0.30;;;13.50;99.90;;;;;;7390038;19;20927;-73
2024/01/24 10:24:16;;;;;;;0.40;0.20;;;13.60;99.90;;;;;;7368597;19;20643;-73
2024/01/24 10:26:44;;;;;;;0.20;0.20;;;13.70;99.90;;;;;;7368428;19;20197;-72
2024/01/24 10:29:11;;;;;;;0.47;0.35;;;13.80;99.90;;;;;;7370284;19;20245;-73
2024/01/24 10:31:36;;;;;;;0.30;0.30;;;13.70;99.90;;;;;;7371504;19;20533;-73
2024/01/24 10:34:06;;;;;;;1.95;0.98;;;13.70;99.90;;;;;;7396081;19;20138;-74
2024/01/24 10:36:38;;;;;;;1.05;0.77;;;13.70;99.90;;;;;;7370907;19;20277;-73
2024/01/24 10:39:09;;;;;;;0.40;0.40;;;13.70;99.90;;;;;;7372545;19;20182;-72
2024/01/24 10:41:40;;;;;;;0.25;0.25;;;13.80;99.90;;;;;;7370173;19;20192;-73
2024/01/24 10:44:09;;;;;;;0.50;0.40;;;13.80;99.90;;;;;;7371137;19;20620;-73
2024/01/24 10:46:39;;;;;;;0.20;0.20;;;13.90;99.90;;;;;;7372311;19;20233;-73
2024/01/24 10:49:05;;;;;;;0.20;0.20;;;14.00;99.90;;;;;;7393247;19;20170;-73
2024/01/24 10:51:32;;;;;;;0.38;0.38;;;14.00;99.90;;;;;;7369958;19;20631;-73
2024/01/24 10:53:59;;;;;;;0.20;0.20;;;13.90;99.90;;;;;;7371064;19;20265;-74
2024/01/24 10:56:25;;;;;;;0.45;0.43;;;14.00;99.90;;;;;;7373501;19;20199;-74
2024/01/24 10:58:51;;;;;;;0.32;0.32;;;14.10;99.90;;;;;;7370979;19;20257;-72
2024/01/24 11:01:17;;;;;;;0.10;0.10;;;14.20;99.90;;;;;;7393518;19;20166;-73
2024/01/24 11:03:49;;;;;;;0.20;0.20;;;14.40;99.90;;;;;;7367880;19;20325;-73
2024/01/24 11:06:17;;;;;;;0.40;0.40;;;14.30;99.90;;;;;;7371510;19;20589;-73
2024/01/24 11:08:48;;;;;;;0.40;0.30;;;14.20;99.90;;;;;;7369266;19;20688;-74
2024/01/24 11:11:18;;;;;;;0.20;0.20;;;14.00;99.90;;;;;;7370361;19;20190;-74
2024/01/24 11:13:44;;;;;;;0.40;0.38;;;14.00;99.90;;;;;;7370705;19;20248;-73
2024/01/24 11:16:25;;;;;;;0.50;0.30;;;13.80;99.90;;;;;;7392791;19;20597;-72
2024/01/24 11:18:51;;;;;;;0.20;0.20;;;13.60;99.90;;;;;;7370603;19;20190;-74
2024/01/24 11:21:21;;;;;;;0.30;0.30;;;13.60;99.90;;;;;;7369621;19;20681;-74
2024/01/24 11:23:48;;;;;;;0.30;0.30;;;13.50;99.90;;;;;;7368448;19;20589;-74
2024/01/24 11:26:16;;;;;;;0.20;0.20;;;13.50;99.90;;;;;;7370553;19;20189;-73
2024/01/24 11:28:43;;;;;;;0.28;0.28;;;13.40;99.90;;;;;;7370848;19;20571;-74
2024/01/24 11:31:09;;;;;;;0.63;0.52;;;13.40;99.90;;;;;;7389627;19;20142;-73
2024/01/24 11:33:34;;;;;;;0.80;0.70;;;13.30;99.90;;;;;;7371449;19;20628;-74
2024/01/24 11:36:11;;;;;;;1.08;0.93;;;13.40;99.90;;;;;;7368125;19;20197;-74
2024/01/24 11:38:37;;;;;;;0.25;0.20;;;13.30;99.90;;;;;;7371957;19;20193;-74
2024/01/24 11:41:23;;;;;;;0.30;0.30;;;13.30;99.90;;;;;;7369556;19;20185;-75
2024/01/24 11:43:49;;;;;;;1.25;0.60;;;13.40;99.90;;;;;;7370789;19;20562;-73
2024/01/24 11:46:14;;;;;;;1.02;0.57;;;13.40;99.90;;;;;;7392822;19;20138;-73
2024/01/24 11:48:40;;;;;;;0.20;0.20;;;13.50;99.90;;;;;;7371752;19;20186;-73
2024/01/24 11:51:09;;;;;;;0.40;0.30;;;13.40;99.90;;;;;;7366497;19;20530;-73
2024/01/24 11:53:35;;;;;;;0.52;0.40;;;13.40;99.90;;;;;;7369151;19;20190;-74
2024/01/24 11:56:03;;;;;;;0.20;0.20;;;13.40;99.90;;;;;;7369030;19;20539;-75
2024/01/24 11:58:29;;;;;;;1.42;0.90;;;13.40;99.90;;;;;;7369163;19;20210;-74
2024/01/24 12:01:05;;;;;;;0.68;0.40;;;13.30;99.90;;;;;;7391836;19;20157;-74
2024/01/24 12:03:32;;;;;;;0.30;0.30;;;13.40;99.90;;;;;;7369090;19;20910;-74
2024/01/24 12:05:58;;;;;;;0.35;0.35;;;13.40;99.90;;;;;;7366570;19;20623;-74
2024/01/24 12:08:24;;;;;;;0.25;0.20;;;13.50;99.90;;;;;;7369295;19;20194;-74
2024/01/24 12:10:50;;;;;;;0.50;0.40;;;13.50;99.90;;;;;;7368164;19;20201;-74
2024/01/24 12:13:17;;;;;;;0.20;0.20;;;13.60;99.90;;;;;;7390003;19;20214;-74
2024/01/24 12:15:46;;;;;;;0.22;0.22;;;13.70;99.90;;;;;;7366195;19;20194;-74
2024/01/24 12:18:18;;;;;;;0.40;0.40;;;13.70;99.90;;;;;;7368390;19;20197;-75
2024/01/24 12:20:53;;;;;;;0.47;0.40;;;13.70;99.90;;;;;;7367509;19;20194;-73
2024/01/24 12:23:20;;;;;;;0.55;0.52;;;13.70;99.90;;;;;;7368355;19;20181;-73
2024/01/24 12:25:46;;;;;;;0.70;0.70;;;13.70;99.90;;;;;;7369459;19;20186;-74
2024/01/24 12:28:13;;;;;;;0.20;0.20;;;13.60;99.90;;;;;;7389681;19;20150;-74
2024/01/24 12:30:43;;;;;;;0.20;0.20;;;13.70;99.90;;;;;;7365481;19;20206;-75
2024/01/24 12:33:10;;;;;;;1.70;0.40;;;13.60;99.90;;;;;;7367323;19;20186;-75
2024/01/24 12:35:36;;;;;;;0.30;0.30;;;13.70;99.90;;;;;;7368095;19;20182;-75
2024/01/24 12:38:03;;;;;;;0.60;0.50;;;13.70;99.90;;;;;;7368851;19;20189;-75
2024/01/24 12:40:30;;;;;;;0.32;0.32;;;13.70;99.90;;;;;;7367149;19;20206;-75
2024/01/24 12:42:57;;;;;;;0.28;0.28;;;13.60;99.90;;;;;;7390071;19;20147;-74